createdAt,value
2022-08-04T00:00:27.580Z,101177.00
2022-08-04T00:03:14.699Z,101178.00
2022-08-04T00:06:02.125Z,101168.00
2022-08-04T00:08:46.382Z,101174.00
2022-08-04T00:11:22.103Z,101180.00
2022-08-04T00:14:03.330Z,101176.00
2022-08-04T00:16:37.862Z,101175.00
2022-08-04T00:19:13.534Z,101163.00
2022-08-04T00:21:49.373Z,101172.00
2022-08-04T00:24:18.498Z,101170.00
2022-08-04T00:26:48.911Z,101161.00
2022-08-04T00:29:17.795Z,101166.00
2022-08-04T00:31:56.905Z,101167.00
2022-08-04T00:34:28.977Z,101144.00
2022-08-04T00:36:59.025Z,101137.00
2022-08-04T00:39:28.323Z,101156.00
2022-08-04T00:42:27.257Z,101143.00
2022-08-04T00:45:13.291Z,101141.00
2022-08-04T00:47:59.114Z,101133.00
2022-08-04T00:50:38.993Z,101147.00
2022-08-04T00:53:13.082Z,101134.00
2022-08-04T00:56:24.747Z,101141.00
2022-08-04T00:59:05.754Z,101126.00
2022-08-04T01:01:57.528Z,101135.00
2022-08-04T01:04:44.311Z,101089.00
2022-08-04T01:07:38.898Z,101133.00
2022-08-04T01:10:17.751Z,101120.00
2022-08-04T01:13:15.276Z,101127.00
2022-08-04T01:16:00.665Z,101112.00
2022-08-04T01:18:41.524Z,101119.00
2022-08-04T01:22:09.640Z,101116.00
2022-08-04T01:25:02.234Z,101099.00
2022-08-04T01:27:56.133Z,101105.00
2022-08-04T01:30:28.246Z,101107.00
2022-08-04T01:33:04.488Z,101102.00
2022-08-04T01:35:47.456Z,101082.00
2022-08-04T01:38:24.640Z,101101.00
2022-08-04T01:40:55.539Z,101107.00
2022-08-04T01:43:25.593Z,101099.00
2022-08-04T01:46:01.336Z,101101.00
2022-08-04T01:48:30.636Z,101100.00
2022-08-04T01:51:01.875Z,101090.00
2022-08-04T01:53:33.460Z,101094.00
2022-08-04T01:56:03.526Z,101091.00
2022-08-04T01:58:34.609Z,101073.00
2022-08-04T02:01:08.831Z,101069.00
2022-08-04T02:04:21.227Z,101079.00
2022-08-04T02:06:35.630Z,101073.00
2022-08-04T02:09:14.200Z,101062.00
2022-08-04T02:11:47.104Z,101079.00
2022-08-04T02:14:43.217Z,101063.00
2022-08-04T02:17:15.804Z,101050.00
2022-08-04T02:20:11.126Z,101081.00
2022-08-04T02:22:47.634Z,101058.00
2022-08-04T02:25:23.710Z,101067.00
2022-08-04T02:28:23.798Z,101059.00
2022-08-04T02:31:04.649Z,101044.00
2022-08-04T02:33:39.707Z,101057.00
2022-08-04T02:36:12.038Z,101060.00
2022-08-04T02:38:57.688Z,101059.00
2022-08-04T02:41:29.728Z,101027.00
2022-08-04T02:44:01.288Z,101056.00
2022-08-04T02:46:31.294Z,101045.00
2022-08-04T02:49:05.178Z,101039.00
2022-08-04T02:51:37.619Z,101052.00
2022-08-04T02:54:07.746Z,101053.00
2022-08-04T02:56:38.939Z,101048.00
2022-08-04T02:59:10.459Z,101043.00
2022-08-04T03:01:57.193Z,101039.00
2022-08-04T03:04:48.990Z,101027.00
2022-08-04T03:07:58.291Z,101038.00
2022-08-04T03:11:10.537Z,101035.00
2022-08-04T03:14:14.189Z,101035.00
2022-08-04T03:17:17.943Z,101031.00
2022-08-04T03:20:46.120Z,101026.00
2022-08-04T03:23:44.640Z,101033.00
2022-08-04T03:26:59.238Z,101015.00
2022-08-04T03:30:07.483Z,101016.00
2022-08-04T03:33:20.514Z,101017.00
2022-08-04T03:36:38.791Z,101001.00
2022-08-04T03:39:45.860Z,101016.00
2022-08-04T03:42:54.365Z,101019.00
2022-08-04T03:45:58.161Z,101007.00
2022-08-04T03:49:20.453Z,101014.00
2022-08-04T03:52:23.824Z,100999.00
2022-08-04T03:55:31.214Z,101018.00
2022-08-04T03:58:40.888Z,101025.00
2022-08-04T04:01:30.722Z,101006.00
2022-08-04T04:04:42.260Z,100996.00
2022-08-04T04:07:58.229Z,101014.00
2022-08-04T04:10:59.871Z,101012.00
2022-08-04T04:13:55.761Z,101014.00
2022-08-04T04:16:51.140Z,101000.00
2022-08-04T04:19:47.143Z,101011.00
2022-08-04T04:22:55.950Z,101008.00
2022-08-04T04:25:40.858Z,101014.00
2022-08-04T04:28:46.940Z,101010.00
2022-08-04T04:31:48.218Z,101009.00
2022-08-04T04:34:42.879Z,101015.00
2022-08-04T04:37:33.296Z,101011.00
2022-08-04T04:40:21.824Z,101013.00
2022-08-04T04:43:51.307Z,101014.00
2022-08-04T04:46:34.600Z,101013.00
2022-08-04T04:49:16.129Z,101015.00
2022-08-04T04:51:50.719Z,101013.00
2022-08-04T04:54:31.946Z,101001.00
2022-08-04T04:57:12.485Z,101020.00
2022-08-04T04:59:49.263Z,101022.00
2022-08-04T05:03:07.248Z,101028.00
2022-08-04T05:05:59.573Z,101031.00
2022-08-04T05:09:09.125Z,101032.00
2022-08-04T05:13:20.449Z,101037.00
2022-08-04T05:15:06.342Z,101039.00
2022-08-04T05:17:40.051Z,101027.00
2022-08-04T05:20:13.885Z,101037.00
2022-08-04T05:22:49.934Z,101054.00
2022-08-04T05:25:25.229Z,101050.00
2022-08-04T05:28:03.987Z,101035.00
2022-08-04T05:30:38.585Z,101033.00
2022-08-04T05:33:13.803Z,101052.00
2022-08-04T05:36:18.590Z,101060.00
2022-08-04T05:38:42.373Z,101058.00
2022-08-04T05:41:11.719Z,101070.00
2022-08-04T05:43:44.960Z,101059.00
2022-08-04T05:46:15.128Z,101051.00
2022-08-04T05:48:46.711Z,101056.00
2022-08-04T05:51:16.776Z,101068.00
2022-08-04T05:53:47.201Z,101061.00
2022-08-04T05:56:16.920Z,101048.00
2022-08-04T05:58:47.594Z,101064.00
2022-08-04T06:01:18.907Z,101065.00
2022-08-04T06:03:50.350Z,101077.00
2022-08-04T06:06:21.046Z,101078.00
2022-08-04T06:08:49.774Z,101082.00
2022-08-04T06:11:20.494Z,101072.00
2022-08-04T06:13:55.807Z,101067.00
2022-08-04T06:16:30.011Z,101070.00
2022-08-04T06:19:59.847Z,101069.00
2022-08-04T06:21:54.922Z,101061.00
2022-08-04T06:24:27.720Z,101067.00
2022-08-04T06:26:56.841Z,101068.00
2022-08-04T06:29:34.190Z,101063.00
2022-08-04T06:32:28.385Z,101054.00
2022-08-04T06:35:03.524Z,101059.00
2022-08-04T06:37:42.404Z,101056.00
2022-08-04T06:40:30.919Z,101051.00
2022-08-04T06:43:03.256Z,101052.00
2022-08-04T06:45:35.449Z,101057.00
2022-08-04T06:48:05.572Z,101045.00
2022-08-04T06:51:29.581Z,101046.00
2022-08-04T06:53:25.841Z,101046.00
2022-08-04T06:55:55.492Z,101047.00
2022-08-04T06:58:26.157Z,101053.00
2022-08-04T07:01:01.751Z,101046.00
2022-08-04T07:03:31.324Z,101046.00
2022-08-04T07:06:05.820Z,101042.00
2022-08-04T07:08:37.526Z,101049.00
2022-08-04T07:11:07.181Z,101051.00
2022-08-04T07:13:36.161Z,101051.00
2022-08-04T07:16:08.678Z,101045.00
2022-08-04T07:18:36.963Z,101057.00
2022-08-04T07:21:05.701Z,101056.00
2022-08-04T07:23:33.947Z,101056.00
2022-08-04T07:26:11.839Z,101062.00
2022-08-04T07:28:42.378Z,101043.00
2022-08-04T07:31:34.293Z,101050.00
2022-08-04T07:34:20.811Z,101043.00
2022-08-04T07:36:55.544Z,101046.00
2022-08-04T07:39:29.074Z,101046.00
2022-08-04T07:42:01.225Z,101046.00
2022-08-04T07:44:32.105Z,101044.00
2022-08-04T07:47:02.948Z,101045.00
2022-08-04T07:49:57.363Z,101047.00
2022-08-04T07:52:20.248Z,101053.00
2022-08-04T07:54:49.394Z,101045.00
2022-08-04T07:57:40.553Z,101049.00
2022-08-04T08:00:11.540Z,101059.00
2022-08-04T08:02:41.792Z,101054.00
2022-08-04T08:05:11.605Z,101057.00
2022-08-04T08:07:50.862Z,101053.00
2022-08-04T08:10:24.163Z,101057.00
2022-08-04T08:12:53.574Z,101061.00
2022-08-04T08:15:22.879Z,101063.00
2022-08-04T08:17:58.172Z,101065.00
2022-08-04T08:20:29.749Z,101054.00
2022-08-04T08:22:59.214Z,101053.00
2022-08-04T08:25:27.430Z,101055.00
2022-08-04T08:27:56.734Z,101044.00
2022-08-04T08:30:31.866Z,101044.00
2022-08-04T08:33:06.135Z,101051.00
2022-08-04T08:35:49.330Z,101041.00
2022-08-04T08:38:35.242Z,101049.00
2022-08-04T08:41:39.559Z,101046.00
2022-08-04T08:44:37.484Z,101052.00
2022-08-04T08:48:04.968Z,101048.00
2022-08-04T08:51:09.839Z,101046.00
2022-08-04T08:53:58.972Z,101040.00
2022-08-04T08:56:37.650Z,101040.00
2022-08-04T08:59:40.512Z,101041.00
2022-08-04T09:02:49.857Z,101039.00
2022-08-04T09:06:43.458Z,101047.00
2022-08-04T09:09:48.144Z,101041.00
2022-08-04T09:12:26.055Z,101047.00
2022-08-04T09:15:04.555Z,101047.00
2022-08-04T09:17:38.987Z,101047.00
2022-08-04T09:20:14.416Z,101039.00
2022-08-04T09:22:53.446Z,101048.00
2022-08-04T09:25:26.254Z,101052.00
2022-08-04T09:27:56.841Z,101059.00
2022-08-04T09:30:34.172Z,101046.00
2022-08-04T09:33:17.398Z,101065.00
2022-08-04T09:36:00.901Z,101051.00
2022-08-04T09:38:39.463Z,101053.00
2022-08-04T09:41:48.638Z,101060.00
2022-08-04T09:44:49.905Z,101056.00
2022-08-04T09:47:21.475Z,101057.00
2022-08-04T09:49:59.678Z,101063.00
2022-08-04T09:52:45.428Z,101067.00
2022-08-04T09:55:25.685Z,101067.00
2022-08-04T09:58:03.229Z,101077.00
2022-08-04T10:00:40.924Z,101073.00
2022-08-04T10:03:19.154Z,101082.00
2022-08-04T10:06:17.109Z,101073.00
2022-08-04T10:09:02.287Z,101079.00
2022-08-04T10:11:55.976Z,101089.00
2022-08-04T10:14:40.125Z,101081.00
2022-08-04T10:17:51.944Z,101088.00
2022-08-04T10:20:45.813Z,101099.00
2022-08-04T10:23:55.962Z,101093.00
2022-08-04T10:26:36.347Z,101096.00
2022-08-04T10:29:10.974Z,101084.00
2022-08-04T10:31:47.726Z,101084.00
2022-08-04T10:34:22.059Z,101094.00
2022-08-04T10:36:58.721Z,101100.00
2022-08-04T10:39:43.250Z,101096.00
2022-08-04T10:42:26.376Z,101091.00
2022-08-04T10:45:09.594Z,101101.00
2022-08-04T10:47:53.221Z,101074.00
2022-08-04T10:50:25.352Z,101095.00
2022-08-04T10:53:02.462Z,101105.00
2022-08-04T10:56:08.016Z,101101.00
2022-08-04T10:58:47.382Z,101103.00
2022-08-04T11:02:01.007Z,101092.00
2022-08-04T11:04:27.095Z,101093.00
2022-08-04T11:06:57.662Z,101108.00
2022-08-04T11:09:26.146Z,101107.00
2022-08-04T11:12:01.605Z,101111.00
2022-08-04T11:14:39.262Z,101106.00
2022-08-04T11:17:12.957Z,101117.00
2022-08-04T11:19:53.844Z,101121.00
2022-08-04T11:22:27.828Z,101121.00
2022-08-04T11:25:07.258Z,101133.00
2022-08-04T11:27:45.992Z,101125.00
2022-08-04T11:30:18.346Z,101138.00
2022-08-04T11:33:05.746Z,101141.00
2022-08-04T11:35:42.586Z,101151.00
2022-08-04T11:38:21.559Z,101140.00
2022-08-04T11:41:02.466Z,101135.00
2022-08-04T11:44:02.342Z,101144.00
2022-08-04T11:46:41.246Z,101151.00
2022-08-04T11:49:17.617Z,101153.00
2022-08-04T11:51:47.699Z,101172.00
2022-08-04T11:54:17.211Z,101195.00
2022-08-04T11:56:46.348Z,101198.00
2022-08-04T11:59:14.841Z,101191.00
2022-08-04T12:02:21.507Z,101197.00
2022-08-04T12:04:58.227Z,101206.00
2022-08-04T12:07:44.449Z,101223.00
2022-08-04T12:10:41.193Z,101234.00
2022-08-04T12:13:23.346Z,101229.00
2022-08-04T12:16:02.567Z,101256.00
2022-08-04T12:18:40.548Z,101272.00
2022-08-04T12:21:15.435Z,101278.00
2022-08-04T12:23:46.418Z,101275.00
2022-08-04T12:26:22.248Z,101269.00
2022-08-04T12:29:09.605Z,101270.00
2022-08-04T12:31:46.487Z,101272.00
2022-08-04T12:34:23.730Z,101274.00
2022-08-04T12:37:04.821Z,101275.00
2022-08-04T12:39:33.557Z,101275.00
2022-08-04T12:42:09.106Z,101277.00
2022-08-04T12:44:40.321Z,101260.00
2022-08-04T12:47:36.496Z,101272.00
2022-08-04T12:50:04.435Z,101268.00
2022-08-04T12:53:01.454Z,101260.00
2022-08-04T12:55:30.127Z,101252.00
2022-08-04T12:58:00.127Z,101247.00
2022-08-04T13:00:35.370Z,101242.00
2022-08-04T13:03:12.978Z,101234.00
2022-08-04T13:05:44.703Z,101235.00
2022-08-04T13:08:15.375Z,101229.00
2022-08-04T13:10:47.128Z,101222.00
2022-08-04T13:13:19.150Z,101209.00
2022-08-04T13:15:59.011Z,101200.00
2022-08-04T13:18:32.321Z,101194.00
2022-08-04T13:21:19.434Z,101205.00
2022-08-04T13:24:11.038Z,101210.00
2022-08-04T13:26:55.217Z,101206.00
2022-08-04T13:29:58.653Z,101191.00
2022-08-04T13:32:22.276Z,101192.00
2022-08-04T13:34:54.185Z,101196.00
2022-08-04T13:37:28.047Z,101206.00
2022-08-04T13:39:58.926Z,101192.00
2022-08-04T13:42:28.483Z,101192.00
2022-08-04T13:44:59.984Z,101197.00
2022-08-04T13:47:33.455Z,101186.00
2022-08-04T13:50:16.981Z,101196.00
2022-08-04T13:52:47.715Z,101164.00
2022-08-04T13:55:26.416Z,101186.00
2022-08-04T13:58:00.470Z,101180.00
2022-08-04T14:00:43.838Z,101172.00
2022-08-04T14:03:24.321Z,101164.00
2022-08-04T14:06:25.733Z,101166.00
2022-08-04T14:08:58.906Z,101169.00
2022-08-04T14:12:09.482Z,101179.00
2022-08-04T14:14:29.618Z,101182.00
2022-08-04T14:17:04.687Z,101184.00
2022-08-04T14:19:53.730Z,101185.00
2022-08-04T14:22:37.293Z,101189.00
2022-08-04T14:25:15.823Z,101180.00
2022-08-04T14:27:51.120Z,101191.00
2022-08-04T14:30:28.982Z,101189.00
2022-08-04T14:34:00.474Z,101175.00
2022-08-04T14:36:04.302Z,101181.00
2022-08-04T14:38:54.818Z,101177.00
2022-08-04T14:41:31.583Z,101179.00
2022-08-04T14:44:02.314Z,101180.00
2022-08-04T14:46:36.880Z,101169.00
2022-08-04T14:49:10.875Z,101180.00
2022-08-04T14:51:42.398Z,101165.00
2022-08-04T14:54:17.737Z,101167.00
2022-08-04T14:56:55.662Z,101180.00
2022-08-04T14:59:24.556Z,101170.00
2022-08-04T15:02:00.508Z,101178.00
2022-08-04T15:04:31.277Z,101178.00
2022-08-04T15:07:00.918Z,101168.00
2022-08-04T15:09:33.756Z,101180.00
2022-08-04T15:12:05.182Z,101186.00
2022-08-04T15:14:37.425Z,101196.00
2022-08-04T15:17:12.368Z,101189.00
2022-08-04T15:19:56.944Z,101190.00
2022-08-04T15:22:25.575Z,101189.00
2022-08-04T15:24:55.629Z,101176.00
2022-08-04T15:27:29.853Z,101182.00
2022-08-04T15:30:02.732Z,101175.00
2022-08-04T15:32:34.148Z,101174.00
2022-08-04T15:35:10.829Z,101182.00
2022-08-04T15:37:50.822Z,101186.00
2022-08-04T15:40:32.897Z,101188.00
2022-08-04T15:43:17.279Z,101191.00
2022-08-04T15:46:33.079Z,101173.00
2022-08-04T15:48:41.113Z,101164.00
2022-08-04T15:51:15.284Z,101195.00
2022-08-04T15:54:29.437Z,101171.00
2022-08-04T15:57:03.297Z,101196.00
2022-08-04T16:00:01.295Z,101198.00
2022-08-04T16:02:50.376Z,101195.00
2022-08-04T16:05:42.101Z,101200.00
2022-08-04T16:08:18.316Z,101200.00
2022-08-04T16:10:51.133Z,101205.00
2022-08-04T16:13:22.132Z,101202.00
2022-08-04T16:15:54.659Z,101218.00
2022-08-04T16:18:39.886Z,101215.00
2022-08-04T16:21:19.887Z,101212.00
2022-08-04T16:24:21.734Z,101220.00
2022-08-04T16:26:56.875Z,101220.00
2022-08-04T16:29:38.567Z,101224.00
2022-08-04T16:32:21.309Z,101223.00
2022-08-04T16:35:04.257Z,101223.00
2022-08-04T16:37:35.655Z,101226.00
2022-08-04T16:40:38.904Z,101230.00
2022-08-04T16:43:10.833Z,101223.00
2022-08-04T16:45:53.951Z,101238.00
2022-08-04T16:48:26.957Z,101240.00
2022-08-04T16:51:04.888Z,101245.00
2022-08-04T16:53:57.727Z,101238.00
2022-08-04T16:56:34.192Z,101245.00
2022-08-04T16:59:11.094Z,101243.00
2022-08-04T17:01:46.788Z,101242.00
2022-08-04T17:04:17.289Z,101249.00
2022-08-04T17:06:47.376Z,101246.00
2022-08-04T17:09:18.654Z,101249.00
2022-08-04T17:11:48.745Z,101251.00
2022-08-04T17:14:23.832Z,101243.00
2022-08-04T17:16:53.903Z,101233.00
2022-08-04T17:19:26.479Z,101242.00
2022-08-04T17:22:04.730Z,101243.00
2022-08-04T17:24:38.032Z,101237.00
2022-08-04T17:28:18.962Z,101242.00
2022-08-04T17:29:55.622Z,101249.00
2022-08-04T17:32:24.799Z,101241.00
2022-08-04T17:34:58.508Z,101243.00
2022-08-04T17:37:39.119Z,101235.00
2022-08-04T17:40:13.111Z,101241.00
2022-08-04T17:42:42.425Z,101246.00
2022-08-04T17:48:09.982Z,101250.00
2022-08-04T17:50:43.815Z,101254.00
2022-08-04T17:53:13.322Z,101249.00
2022-08-04T17:55:44.662Z,101248.00
2022-08-04T17:58:22.183Z,101256.00
2022-08-04T18:01:22.677Z,101251.00
2022-08-04T18:03:53.293Z,101253.00
2022-08-04T18:06:25.490Z,101256.00
2022-08-04T18:08:59.286Z,101256.00
2022-08-04T18:11:54.822Z,101256.00
2022-08-04T18:18:20.017Z,101250.00
2022-08-04T18:20:01.322Z,101250.00
2022-08-04T18:22:31.993Z,101264.00
2022-08-04T18:25:00.200Z,101264.00
2022-08-04T18:27:31.183Z,101257.00
2022-08-04T18:30:33.664Z,101265.00
2022-08-04T18:33:10.651Z,101278.00
2022-08-04T18:36:35.282Z,101270.00
2022-08-04T18:38:29.699Z,101273.00
2022-08-04T18:40:58.536Z,101275.00
2022-08-04T18:43:28.599Z,101280.00
2022-08-04T18:45:59.378Z,101266.00
2022-08-04T18:48:36.057Z,101289.00
2022-08-04T18:51:23.223Z,101279.00
2022-08-04T18:53:55.299Z,101280.00
2022-08-04T18:56:29.710Z,101291.00
2022-08-04T18:59:00.547Z,101296.00
2022-08-04T19:01:30.306Z,101292.00
2022-08-04T19:04:33.954Z,101298.00
2022-08-04T19:07:28.699Z,101298.00
2022-08-04T19:09:58.496Z,101306.00
2022-08-04T19:12:28.891Z,101303.00
2022-08-04T19:15:08.848Z,101304.00
2022-08-04T19:17:53.655Z,101308.00
2022-08-04T19:20:27.004Z,101317.00
2022-08-04T19:24:10.837Z,101312.00
2022-08-04T19:28:37.456Z,101309.00
2022-08-04T19:31:07.345Z,101324.00
2022-08-04T19:33:58.301Z,101323.00
2022-08-04T19:36:28.511Z,101331.00
2022-08-04T19:38:59.545Z,101313.00
2022-08-04T19:41:31.995Z,101334.00
2022-08-04T19:44:00.378Z,101327.00
2022-08-04T19:46:29.192Z,101333.00
2022-08-04T19:49:00.387Z,101319.00
2022-08-04T19:51:30.516Z,101328.00
2022-08-04T19:54:03.782Z,101336.00
2022-08-04T19:56:39.933Z,101329.00
2022-08-04T19:59:09.916Z,101329.00
2022-08-04T20:01:44.816Z,101323.00
2022-08-04T20:04:14.285Z,101334.00
2022-08-04T20:06:43.616Z,101322.00
2022-08-04T20:09:24.993Z,101351.00
2022-08-04T20:11:56.682Z,101338.00
2022-08-04T20:14:32.184Z,101340.00
2022-08-04T20:17:10.221Z,101344.00
2022-08-04T20:19:39.638Z,101336.00
2022-08-04T20:22:50.587Z,101337.00
2022-08-04T20:25:17.951Z,101331.00
2022-08-04T20:27:51.652Z,101338.00
2022-08-04T20:30:29.816Z,101339.00
2022-08-04T20:33:00.116Z,101346.00
2022-08-04T20:35:28.733Z,101340.00
2022-08-04T20:38:01.298Z,101345.00
2022-08-04T20:40:31.035Z,101346.00
2022-08-04T20:43:01.188Z,101331.00
2022-08-04T20:45:57.275Z,101326.00
2022-08-04T20:48:18.110Z,101332.00
2022-08-04T20:50:47.431Z,101314.00
2022-08-04T20:53:17.437Z,101362.00
2022-08-04T20:55:47.245Z,101358.00
2022-08-04T20:58:27.515Z,101336.00
2022-08-04T21:00:57.376Z,101349.00
2022-08-04T21:03:38.567Z,101360.00
2022-08-04T21:06:14.312Z,101366.00
2022-08-04T21:08:56.828Z,101378.00
2022-08-04T21:11:28.367Z,101388.00
2022-08-04T21:14:02.997Z,101381.00
2022-08-04T21:16:56.061Z,101369.00
2022-08-04T21:19:22.443Z,101378.00
2022-08-04T21:21:53.605Z,101391.00
2022-08-04T21:24:25.997Z,101372.00
2022-08-04T21:26:57.214Z,101414.00
2022-08-04T21:29:34.814Z,101405.00
2022-08-04T21:32:05.860Z,101406.00
2022-08-04T21:34:39.738Z,101380.00
2022-08-04T21:37:10.400Z,101362.00
2022-08-04T21:39:50.412Z,101404.00
2022-08-04T21:42:28.954Z,101372.00
2022-08-04T21:44:59.926Z,101375.00
2022-08-04T21:47:45.884Z,101389.00
2022-08-04T21:50:19.923Z,101377.00
2022-08-04T21:52:49.807Z,101420.00
2022-08-04T21:55:19.082Z,101413.00
2022-08-04T21:57:49.467Z,101430.00
2022-08-04T22:00:20.331Z,101436.00
2022-08-04T22:02:53.546Z,101407.00
2022-08-04T22:05:22.618Z,101417.00
2022-08-04T22:07:52.021Z,101415.00
2022-08-04T22:10:32.239Z,101429.00
2022-08-04T22:13:06.856Z,101409.00
2022-08-04T22:16:03.435Z,101376.00
2022-08-04T22:18:27.571Z,101414.00
2022-08-04T22:20:56.529Z,101416.00
2022-08-04T22:23:25.229Z,101401.00
2022-08-04T22:25:56.043Z,101450.00
2022-08-04T22:28:28.640Z,101460.00
2022-08-04T22:30:59.015Z,101435.00
2022-08-04T22:33:54.997Z,101447.00
2022-08-04T22:36:19.022Z,101441.00
2022-08-04T22:38:52.290Z,101454.00
2022-08-04T22:41:34.475Z,101433.00
2022-08-04T22:44:18.073Z,101448.00
2022-08-04T22:46:50.801Z,101421.00
2022-08-04T22:49:19.124Z,101434.00
2022-08-04T22:51:53.692Z,101456.00
2022-08-04T22:54:22.151Z,101419.00
2022-08-04T22:56:54.906Z,101433.00
2022-08-04T22:59:25.355Z,101419.00
2022-08-04T23:02:00.012Z,101457.00
2022-08-04T23:04:34.040Z,101419.00
2022-08-04T23:07:05.255Z,101428.00
2022-08-04T23:09:50.376Z,101399.00
2022-08-04T23:12:25.537Z,101398.00
2022-08-04T23:14:58.985Z,101425.00
2022-08-04T23:17:32.954Z,101389.00
2022-08-04T23:20:23.521Z,101404.00
2022-08-04T23:23:14.924Z,101390.00
2022-08-04T23:26:07.960Z,101404.00
2022-08-04T23:28:34.892Z,101363.00
2022-08-04T23:31:04.615Z,101328.00
2022-08-04T23:33:49.111Z,101343.00
2022-08-04T23:36:29.458Z,101323.00
2022-08-04T23:39:01.116Z,101332.00
2022-08-04T23:41:54.337Z,101316.00
2022-08-04T23:44:24.454Z,101315.00
2022-08-04T23:47:00.270Z,101311.00
2022-08-04T23:49:44.559Z,101294.00
2022-08-04T23:52:23.550Z,101332.00
2022-08-04T23:54:59.565Z,101359.00
2022-08-04T23:58:02.090Z,101318.00
